createdAt,value
2023-03-03T00:03:33.964Z,380.00
2023-03-03T00:07:34.102Z,382.00
2023-03-03T00:11:34.199Z,385.00
2023-03-03T00:15:34.410Z,387.00
2023-03-03T00:19:34.563Z,383.00
2023-03-03T00:23:34.744Z,381.00
2023-03-03T00:27:34.896Z,384.00
2023-03-03T00:31:35.140Z,383.00
2023-03-03T00:35:35.366Z,383.00
2023-03-03T00:39:35.453Z,380.00
2023-03-03T00:43:35.597Z,382.00
2023-03-03T00:47:35.746Z,384.00
2023-03-03T00:51:35.936Z,386.00
2023-03-03T00:55:36.084Z,387.00
2023-03-03T00:59:36.242Z,384.00
2023-03-03T01:03:36.410Z,384.00
2023-03-03T01:07:36.569Z,383.00
2023-03-03T01:11:36.726Z,382.00
2023-03-03T01:15:36.897Z,384.00
2023-03-03T01:19:37.060Z,382.00
2023-03-03T01:23:37.228Z,384.00
2023-03-03T01:27:37.412Z,385.00
2023-03-03T01:31:37.617Z,386.00
2023-03-03T01:35:37.781Z,383.00
2023-03-03T01:39:37.894Z,378.00
2023-03-03T01:43:38.078Z,380.00
2023-03-03T01:47:38.260Z,382.00
2023-03-03T01:51:38.426Z,379.00
2023-03-03T01:55:38.606Z,380.00
2023-03-03T01:59:38.758Z,382.00
2023-03-03T02:03:38.983Z,383.00
2023-03-03T02:07:39.165Z,383.00
2023-03-03T02:11:39.351Z,381.00
2023-03-03T02:15:39.538Z,380.00
2023-03-03T02:19:39.704Z,382.00
2023-03-03T02:23:39.915Z,384.00
2023-03-03T02:27:40.063Z,383.00
2023-03-03T02:31:40.336Z,379.00
2023-03-03T02:35:40.497Z,380.00
2023-03-03T02:39:40.720Z,383.00
2023-03-03T02:43:40.899Z,388.00
2023-03-03T02:47:41.143Z,384.00
2023-03-03T02:51:41.308Z,381.00
2023-03-03T02:55:41.537Z,381.00
2023-03-03T02:59:41.730Z,382.00
2023-03-03T03:03:41.945Z,380.00
2023-03-03T03:07:42.124Z,382.00
2023-03-03T03:11:42.353Z,379.00
2023-03-03T03:15:42.512Z,378.00
2023-03-03T03:19:42.718Z,377.00
2023-03-03T03:23:42.930Z,375.00
2023-03-03T03:27:43.184Z,377.00
2023-03-03T03:31:43.366Z,379.00
2023-03-03T03:35:43.601Z,376.00
2023-03-03T03:39:43.759Z,370.00
2023-03-03T03:43:43.908Z,375.00
2023-03-03T03:47:44.082Z,380.00
2023-03-03T03:51:44.208Z,379.00
2023-03-03T03:55:44.376Z,377.00
2023-03-03T03:59:44.556Z,378.00
2023-03-03T04:03:44.745Z,379.00
2023-03-03T04:07:44.876Z,376.00
2023-03-03T04:11:45.069Z,376.00
2023-03-03T04:15:45.268Z,378.00
2023-03-03T04:19:45.407Z,377.00
2023-03-03T04:23:45.625Z,376.00
2023-03-03T04:27:45.770Z,376.00
2023-03-03T04:31:45.929Z,375.00
2023-03-03T04:35:46.103Z,378.00
2023-03-03T04:39:46.276Z,380.00
2023-03-03T04:43:46.474Z,376.00
2023-03-03T04:47:46.643Z,377.00
2023-03-03T04:51:46.857Z,377.00
2023-03-03T04:55:46.942Z,372.00
2023-03-03T04:59:47.151Z,375.00
2023-03-03T05:03:47.314Z,376.00
2023-03-03T05:07:47.469Z,384.00
2023-03-03T05:11:47.618Z,384.00
2023-03-03T05:15:47.822Z,388.00
2023-03-03T05:19:47.981Z,396.00
2023-03-03T05:23:48.148Z,400.00
2023-03-03T05:27:48.323Z,407.00
2023-03-03T05:31:48.572Z,409.00
2023-03-03T05:35:48.727Z,405.00
2023-03-03T05:39:48.868Z,404.00
2023-03-03T05:43:49.096Z,402.00
2023-03-03T05:47:49.243Z,400.00
2023-03-03T05:51:49.425Z,410.00
2023-03-03T05:55:49.659Z,405.00
2023-03-03T05:59:49.847Z,404.00
2023-03-03T06:03:50.101Z,404.00
2023-03-03T06:07:50.298Z,405.00
2023-03-03T06:11:50.461Z,405.00
2023-03-03T06:15:50.650Z,402.00
2023-03-03T06:19:50.877Z,402.00
2023-03-03T06:23:51.047Z,404.00
2023-03-03T06:27:51.177Z,413.00
2023-03-03T06:31:51.407Z,418.00
2023-03-03T06:35:51.673Z,516.00
2023-03-03T06:39:51.597Z,528.00
2023-03-03T06:43:51.845Z,606.00
2023-03-03T06:47:52.033Z,744.00
2023-03-03T06:51:52.262Z,739.00
2023-03-03T06:55:52.321Z,794.00
2023-03-03T06:59:52.400Z,841.00
2023-03-03T07:03:52.446Z,843.00
2023-03-03T07:07:52.424Z,876.00
2023-03-03T07:11:52.581Z,902.00
2023-03-03T07:20:11.485Z,942.00
2023-03-03T07:24:11.478Z,747.00
2023-03-03T07:28:11.420Z,691.00
2023-03-03T07:32:11.429Z,648.00
2023-03-03T07:36:11.319Z,729.00
2023-03-03T07:40:11.280Z,798.00
2023-03-03T07:44:11.315Z,686.00
2023-03-03T07:48:11.232Z,743.00
2023-03-03T07:52:11.260Z,765.00
2023-03-03T07:56:11.180Z,802.00
2023-03-03T08:00:11.125Z,829.00
2023-03-03T08:04:11.350Z,858.00
2023-03-03T08:08:11.277Z,882.00
2023-03-03T08:12:11.216Z,891.00
2023-03-03T08:16:11.259Z,740.00
2023-03-03T08:20:11.124Z,803.00
2023-03-03T08:24:11.058Z,816.00
2023-03-03T08:28:11.001Z,822.00
2023-03-03T08:32:11.395Z,853.00
2023-03-03T08:36:10.908Z,716.00
2023-03-03T08:40:10.868Z,614.00
2023-03-03T08:44:10.878Z,565.00
2023-03-03T08:48:10.855Z,525.00
2023-03-03T08:52:10.827Z,493.00
2023-03-03T08:56:10.814Z,471.00
2023-03-03T09:00:10.789Z,455.00
2023-03-03T09:04:10.761Z,443.00
2023-03-03T09:08:10.621Z,430.00
2023-03-03T09:12:10.618Z,424.00
2023-03-03T09:16:10.563Z,420.00
2023-03-03T09:20:10.552Z,417.00
2023-03-03T09:24:10.469Z,420.00
2023-03-03T09:28:10.760Z,436.00
2023-03-03T09:32:10.435Z,582.00
2023-03-03T09:36:10.365Z,688.00
2023-03-03T09:40:10.336Z,687.00
2023-03-03T09:44:10.295Z,696.00
2023-03-03T09:48:10.252Z,684.00
2023-03-03T09:52:10.230Z,670.00
2023-03-03T09:56:10.159Z,657.00
2023-03-03T10:00:10.170Z,647.00
2023-03-03T10:04:10.162Z,637.00
2023-03-03T10:08:10.065Z,642.00
2023-03-03T10:12:10.263Z,635.00
2023-03-03T10:16:10.845Z,612.00
2023-03-03T10:20:10.585Z,605.00
2023-03-03T10:24:10.791Z,607.00
2023-03-03T10:28:10.795Z,618.00
2023-03-03T10:36:30.659Z,644.00
2023-03-03T10:40:29.620Z,681.00
2023-03-03T10:44:29.656Z,670.00
2023-03-03T10:48:29.560Z,673.00
2023-03-03T10:52:29.507Z,676.00
2023-03-03T10:56:30.247Z,675.00
2023-03-03T11:00:29.433Z,673.00
2023-03-03T11:04:29.513Z,675.00
2023-03-03T11:08:29.603Z,675.00
2023-03-03T11:12:29.720Z,681.00
2023-03-03T11:16:29.735Z,676.00
2023-03-03T11:20:29.759Z,676.00
2023-03-03T11:24:29.805Z,666.00
2023-03-03T11:28:29.921Z,672.00
2023-03-03T11:32:29.813Z,678.00
2023-03-03T11:36:29.836Z,682.00
2023-03-03T11:40:29.802Z,680.00
2023-03-03T11:44:29.840Z,675.00
2023-03-03T11:48:29.921Z,682.00
2023-03-03T11:52:29.751Z,675.00
2023-03-03T11:56:29.789Z,680.00
2023-03-03T12:00:29.771Z,680.00
2023-03-03T12:04:29.763Z,676.00
2023-03-03T12:08:29.740Z,678.00
2023-03-03T12:12:29.713Z,680.00
2023-03-03T12:16:29.809Z,703.00
2023-03-03T12:20:29.915Z,679.00
2023-03-03T12:24:29.704Z,636.00
2023-03-03T12:28:29.736Z,597.00
2023-03-03T12:32:29.811Z,565.00
2023-03-03T12:36:29.786Z,541.00
2023-03-03T12:40:29.844Z,523.00
2023-03-03T12:44:29.911Z,508.00
2023-03-03T12:48:29.923Z,493.00
2023-03-03T12:52:30.008Z,482.00
2023-03-03T12:56:30.501Z,473.00
2023-03-03T13:00:30.308Z,465.00
2023-03-03T13:04:30.476Z,466.00
2023-03-03T13:08:30.640Z,454.00
2023-03-03T13:12:30.780Z,449.00
2023-03-03T13:16:40.689Z,447.00
2023-03-03T13:20:31.911Z,437.00
2023-03-03T13:24:30.885Z,433.00
2023-03-03T13:28:30.912Z,431.00
2023-03-03T13:32:31.259Z,441.00
2023-03-03T13:36:31.125Z,446.00
2023-03-03T13:40:31.024Z,468.00
2023-03-03T13:44:30.983Z,451.00
2023-03-03T13:48:30.949Z,450.00
2023-03-03T13:52:30.928Z,465.00
2023-03-03T13:56:30.859Z,473.00
2023-03-03T14:00:30.849Z,464.00
2023-03-03T14:04:30.905Z,464.00
2023-03-03T14:08:30.805Z,450.00
2023-03-03T14:12:30.726Z,459.00
2023-03-03T14:16:30.924Z,459.00
2023-03-03T14:20:30.833Z,457.00
2023-03-03T14:24:30.782Z,459.00
2023-03-03T14:28:30.763Z,463.00
2023-03-03T14:32:44.729Z,458.00
2023-03-03T14:36:31.676Z,447.00
2023-03-03T14:40:30.693Z,442.00
2023-03-03T14:44:30.691Z,438.00
2023-03-03T14:48:32.662Z,436.00
2023-03-03T14:52:30.558Z,434.00
2023-03-03T14:56:30.774Z,432.00
2023-03-03T15:00:30.887Z,429.00
2023-03-03T15:04:30.988Z,423.00
2023-03-03T15:08:30.892Z,423.00
2023-03-03T15:12:30.956Z,426.00
2023-03-03T15:16:31.204Z,426.00
2023-03-03T15:20:31.366Z,421.00
2023-03-03T15:24:31.386Z,418.00
2023-03-03T15:28:31.284Z,417.00
2023-03-03T15:32:31.530Z,418.00
2023-03-03T15:36:31.190Z,414.00
2023-03-03T15:40:31.179Z,414.00
2023-03-03T15:44:31.123Z,411.00
2023-03-03T15:48:31.152Z,409.00
2023-03-03T15:52:31.059Z,410.00
2023-03-03T15:56:31.037Z,426.00
2023-03-03T16:00:31.116Z,429.00
2023-03-03T16:04:31.297Z,425.00
2023-03-03T16:08:31.462Z,418.00
2023-03-03T16:12:31.596Z,414.00
2023-03-03T16:16:31.790Z,410.00
2023-03-03T16:20:31.901Z,412.00
2023-03-03T16:24:32.087Z,406.00
2023-03-03T16:28:32.335Z,403.00
2023-03-03T16:32:32.534Z,402.00
2023-03-03T16:36:32.690Z,404.00
2023-03-03T16:40:32.656Z,403.00
2023-03-03T16:44:32.585Z,402.00
2023-03-03T16:48:32.613Z,405.00
2023-03-03T16:52:32.536Z,403.00
2023-03-03T16:56:32.489Z,408.00
2023-03-03T17:00:32.451Z,402.00
2023-03-03T17:04:32.461Z,400.00
2023-03-03T17:08:32.346Z,402.00
2023-03-03T17:12:32.321Z,404.00
2023-03-03T17:16:46.047Z,404.00
2023-03-03T17:20:33.250Z,400.00
2023-03-03T17:24:32.236Z,401.00
2023-03-03T17:28:32.307Z,403.00
2023-03-03T17:32:32.317Z,400.00
2023-03-03T17:36:32.205Z,399.00
2023-03-03T17:40:32.200Z,398.00
2023-03-03T17:44:32.164Z,400.00
2023-03-03T17:48:32.126Z,402.00
2023-03-03T17:52:32.077Z,402.00
2023-03-03T17:56:32.060Z,398.00
2023-03-03T18:00:32.007Z,398.00
2023-03-03T18:04:32.030Z,401.00
2023-03-03T18:08:32.145Z,399.00
2023-03-03T18:12:32.079Z,398.00
2023-03-03T18:16:32.117Z,396.00
2023-03-03T18:20:32.051Z,394.00
2023-03-03T18:24:31.997Z,395.00
2023-03-03T18:28:31.950Z,397.00
2023-03-03T18:32:31.946Z,397.00
2023-03-03T18:36:31.876Z,396.00
2023-03-03T18:40:31.849Z,400.00
2023-03-03T18:44:31.852Z,399.00
2023-03-03T18:48:31.757Z,401.00
2023-03-03T18:52:31.756Z,401.00
2023-03-03T18:56:31.949Z,400.00
2023-03-03T19:00:32.094Z,404.00
2023-03-03T19:04:32.316Z,402.00
2023-03-03T19:08:32.459Z,403.00
2023-03-03T19:12:32.682Z,401.00
2023-03-03T19:16:32.660Z,401.00
2023-03-03T19:20:32.587Z,402.00
2023-03-03T19:24:32.578Z,403.00
2023-03-03T19:28:32.554Z,406.00
2023-03-03T19:32:32.526Z,404.00
2023-03-03T19:36:32.438Z,403.00
2023-03-03T19:40:32.438Z,401.00
2023-03-03T19:44:32.418Z,398.00
2023-03-03T19:48:32.396Z,398.00
2023-03-03T19:52:32.279Z,401.00
2023-03-03T19:56:32.520Z,398.00
2023-03-03T20:00:32.438Z,401.00
2023-03-03T20:04:32.523Z,400.00
2023-03-03T20:08:32.324Z,401.00
2023-03-03T20:12:32.384Z,402.00
2023-03-03T20:16:32.476Z,401.00
2023-03-03T20:20:32.206Z,400.00
2023-03-03T20:24:32.178Z,400.00
2023-03-03T20:28:32.159Z,399.00
2023-03-03T20:32:32.172Z,398.00
2023-03-03T20:36:32.119Z,398.00
2023-03-03T20:40:32.258Z,398.00
2023-03-03T20:44:32.468Z,397.00
2023-03-03T20:48:32.663Z,397.00
2023-03-03T20:52:32.804Z,393.00
2023-03-03T20:56:32.952Z,391.00
2023-03-03T21:00:33.025Z,393.00
2023-03-03T21:04:33.120Z,404.00
2023-03-03T21:08:33.283Z,401.00
2023-03-03T21:12:33.457Z,401.00
2023-03-03T21:16:33.613Z,406.00
2023-03-03T21:20:33.718Z,400.00
2023-03-03T21:24:33.845Z,402.00
2023-03-03T21:28:33.901Z,403.00
2023-03-03T21:32:33.995Z,404.00
2023-03-03T21:36:34.044Z,407.00
2023-03-03T21:40:34.134Z,404.00
2023-03-03T21:44:34.118Z,402.00
2023-03-03T21:48:34.131Z,401.00
2023-03-03T21:52:34.074Z,405.00
2023-03-03T21:56:34.084Z,407.00
2023-03-03T22:00:34.108Z,403.00
2023-03-03T22:04:34.094Z,399.00
2023-03-03T22:08:34.054Z,397.00
2023-03-03T22:12:34.074Z,394.00
2023-03-03T22:16:34.064Z,397.00
2023-03-03T22:20:34.078Z,394.00
2023-03-03T22:24:34.020Z,397.00
2023-03-03T22:28:34.009Z,395.00
2023-03-03T22:32:34.004Z,396.00
2023-03-03T22:36:33.957Z,399.00
2023-03-03T22:40:33.928Z,402.00
2023-03-03T22:44:34.002Z,403.00
2023-03-03T22:48:34.024Z,404.00
2023-03-03T22:52:34.096Z,404.00
2023-03-03T22:56:34.075Z,399.00
2023-03-03T23:00:34.044Z,400.00
2023-03-03T23:04:34.088Z,397.00
2023-03-03T23:08:33.984Z,396.00
2023-03-03T23:12:33.976Z,394.00
2023-03-03T23:16:33.947Z,392.00
2023-03-03T23:20:33.973Z,396.00
2023-03-03T23:24:33.988Z,402.00
2023-03-03T23:28:33.945Z,403.00
2023-03-03T23:32:33.952Z,404.00
2023-03-03T23:36:33.887Z,400.00
2023-03-03T23:40:33.860Z,396.00
2023-03-03T23:44:33.885Z,397.00
2023-03-03T23:48:33.805Z,401.00
2023-03-03T23:52:33.797Z,402.00
2023-03-03T23:56:33.810Z,404.00
